sensor_id;sensor_type;location;lat;lon;timestamp;temperature;humidity
22698;DHT22;11516;51.612;7.510;2023-07-31T00:00:05;15.50;99.90
22698;DHT22;11516;51.612;7.510;2023-07-31T00:02:30;15.50;99.90
22698;DHT22;11516;51.612;7.510;2023-07-31T00:04:56;15.40;99.90
22698;DHT22;11516;51.612;7.510;2023-07-31T00:07:22;15.40;99.90
22698;DHT22;11516;51.612;7.510;2023-07-31T00:09:47;15.40;99.90
22698;DHT22;11516;51.612;7.510;2023-07-31T00:12:13;15.40;99.90
22698;DHT22;11516;51.612;7.510;2023-07-31T00:14:38;15.40;99.90
22698;DHT22;11516;51.612;7.510;2023-07-31T00:17:04;15.40;99.90
22698;DHT22;11516;51.612;7.510;2023-07-31T00:19:30;15.50;99.90
22698;DHT22;11516;51.612;7.510;2023-07-31T00:21:55;15.40;99.90
22698;DHT22;11516;51.612;7.510;2023-07-31T00:24:21;15.30;99.90
22698;DHT22;11516;51.612;7.510;2023-07-31T00:26:46;15.40;99.90
22698;DHT22;11516;51.612;7.510;2023-07-31T00:29:12;15.30;99.90
22698;DHT22;11516;51.612;7.510;2023-07-31T00:31:37;15.30;99.90
22698;DHT22;11516;51.612;7.510;2023-07-31T00:34:03;15.30;99.90
22698;DHT22;11516;51.612;7.510;2023-07-31T00:36:28;15.20;99.90
22698;DHT22;11516;51.612;7.510;2023-07-31T00:38:54;15.20;99.90
22698;DHT22;11516;51.612;7.510;2023-07-31T00:41:19;15.30;99.90
22698;DHT22;11516;51.612;7.510;2023-07-31T00:43:45;15.40;99.90
22698;DHT22;11516;51.612;7.510;2023-07-31T00:46:11;15.30;99.90
22698;DHT22;11516;51.612;7.510;2023-07-31T00:48:37;15.40;99.90
22698;DHT22;11516;51.612;7.510;2023-07-31T00:51:04;15.50;99.90
22698;DHT22;11516;51.612;7.510;2023-07-31T00:53:30;15.50;99.90
22698;DHT22;11516;51.612;7.510;2023-07-31T00:55:56;15.40;99.90
22698;DHT22;11516;51.612;7.510;2023-07-31T00:58:21;15.40;99.90
22698;DHT22;11516;51.612;7.510;2023-07-31T01:00:47;15.30;99.90
22698;DHT22;11516;51.612;7.510;2023-07-31T01:03:13;15.30;99.90
22698;DHT22;11516;51.612;7.510;2023-07-31T01:08:21;15.50;99.90
22698;DHT22;11516;51.612;7.510;2023-07-31T01:10:56;15.60;99.90
22698;DHT22;11516;51.612;7.510;2023-07-31T01:13:23;15.70;99.90
22698;DHT22;11516;51.612;7.510;2023-07-31T01:15:48;15.80;99.90
22698;DHT22;11516;51.612;7.510;2023-07-31T01:18:14;15.80;99.90
22698;DHT22;11516;51.612;7.510;2023-07-31T01:20:41;15.80;99.90
22698;DHT22;11516;51.612;7.510;2023-07-31T01:23:35;15.90;99.90
22698;DHT22;11516;51.612;7.510;2023-07-31T01:26:12;15.90;99.90
22698;DHT22;11516;51.612;7.510;2023-07-31T01:31:20;15.90;99.90
22698;DHT22;11516;51.612;7.510;2023-07-31T01:33:46;15.90;99.90
22698;DHT22;11516;51.612;7.510;2023-07-31T01:36:12;15.90;99.90
22698;DHT22;11516;51.612;7.510;2023-07-31T01:38:37;15.90;99.90
22698;DHT22;11516;51.612;7.510;2023-07-31T01:41:03;15.90;99.90
22698;DHT22;11516;51.612;7.510;2023-07-31T01:43:28;15.90;99.90
22698;DHT22;11516;51.612;7.510;2023-07-31T01:45:54;15.90;99.90
22698;DHT22;11516;51.612;7.510;2023-07-31T01:48:19;15.90;99.90
22698;DHT22;11516;51.612;7.510;2023-07-31T01:50:45;15.90;99.90
22698;DHT22;11516;51.612;7.510;2023-07-31T01:53:10;15.90;99.90
22698;DHT22;11516;51.612;7.510;2023-07-31T01:55:37;16.00;99.90
22698;DHT22;11516;51.612;7.510;2023-07-31T01:58:04;15.90;99.90
22698;DHT22;11516;51.612;7.510;2023-07-31T02:00:30;15.90;99.90
22698;DHT22;11516;51.612;7.510;2023-07-31T02:02:55;15.90;99.90
22698;DHT22;11516;51.612;7.510;2023-07-31T02:05:21;15.90;99.90
22698;DHT22;11516;51.612;7.510;2023-07-31T02:07:46;15.90;99.90
22698;DHT22;11516;51.612;7.510;2023-07-31T02:10:12;15.90;99.90
22698;DHT22;11516;51.612;7.510;2023-07-31T02:12:39;15.90;99.90
22698;DHT22;11516;51.612;7.510;2023-07-31T02:15:05;15.80;99.90
22698;DHT22;11516;51.612;7.510;2023-07-31T02:17:30;15.80;99.90
22698;DHT22;11516;51.612;7.510;2023-07-31T02:19:56;15.80;99.90
22698;DHT22;11516;51.612;7.510;2023-07-31T02:22:21;15.80;99.90
22698;DHT22;11516;51.612;7.510;2023-07-31T02:24:47;15.80;99.90
22698;DHT22;11516;51.612;7.510;2023-07-31T02:27:12;15.80;99.90
22698;DHT22;11516;51.612;7.510;2023-07-31T02:29:38;16.00;99.90
22698;DHT22;11516;51.612;7.510;2023-07-31T02:32:04;15.80;99.90
22698;DHT22;11516;51.612;7.510;2023-07-31T02:34:30;15.80;99.90
22698;DHT22;11516;51.612;7.510;2023-07-31T02:36:55;15.80;99.90
22698;DHT22;11516;51.612;7.510;2023-07-31T02:39:21;15.80;99.90
22698;DHT22;11516;51.612;7.510;2023-07-31T02:41:46;15.80;99.90
22698;DHT22;11516;51.612;7.510;2023-07-31T02:44:12;15.80;99.90
22698;DHT22;11516;51.612;7.510;2023-07-31T02:46:40;15.70;99.90
22698;DHT22;11516;51.612;7.510;2023-07-31T02:49:05;15.80;99.90
22698;DHT22;11516;51.612;7.510;2023-07-31T02:51:31;15.70;99.90
22698;DHT22;11516;51.612;7.510;2023-07-31T02:53:56;15.70;99.90
22698;DHT22;11516;51.612;7.510;2023-07-31T02:56:22;15.70;99.90
22698;DHT22;11516;51.612;7.510;2023-07-31T02:58:47;15.70;99.90
22698;DHT22;11516;51.612;7.510;2023-07-31T03:01:13;15.80;99.90
22698;DHT22;11516;51.612;7.510;2023-07-31T03:03:39;15.80;99.90
22698;DHT22;11516;51.612;7.510;2023-07-31T03:06:04;15.80;99.90
22698;DHT22;11516;51.612;7.510;2023-07-31T03:08:29;15.80;99.90
22698;DHT22;11516;51.612;7.510;2023-07-31T03:10:56;15.80;99.90
22698;DHT22;11516;51.612;7.510;2023-07-31T03:13:22;15.70;99.90
22698;DHT22;11516;51.612;7.510;2023-07-31T03:15:47;15.80;99.90
22698;DHT22;11516;51.612;7.510;2023-07-31T03:18:13;15.70;99.90
22698;DHT22;11516;51.612;7.510;2023-07-31T03:20:44;15.70;99.90
22698;DHT22;11516;51.612;7.510;2023-07-31T03:23:10;15.70;99.90
22698;DHT22;11516;51.612;7.510;2023-07-31T03:25:36;15.70;99.90
22698;DHT22;11516;51.612;7.510;2023-07-31T03:28:01;15.70;99.90
22698;DHT22;11516;51.612;7.510;2023-07-31T03:30:27;15.70;99.90
22698;DHT22;11516;51.612;7.510;2023-07-31T03:32:52;15.70;99.90
22698;DHT22;11516;51.612;7.510;2023-07-31T03:35:18;15.70;99.90
22698;DHT22;11516;51.612;7.510;2023-07-31T03:37:43;15.70;99.90
22698;DHT22;11516;51.612;7.510;2023-07-31T03:40:09;15.70;99.90
22698;DHT22;11516;51.612;7.510;2023-07-31T03:42:35;15.70;99.90
22698;DHT22;11516;51.612;7.510;2023-07-31T03:45:00;15.70;99.90
22698;DHT22;11516;51.612;7.510;2023-07-31T03:47:26;15.70;99.90
22698;DHT22;11516;51.612;7.510;2023-07-31T03:49:52;15.70;99.90
22698;DHT22;11516;51.612;7.510;2023-07-31T03:52:17;15.70;99.90
22698;DHT22;11516;51.612;7.510;2023-07-31T03:54:43;15.80;99.90
22698;DHT22;11516;51.612;7.510;2023-07-31T03:57:10;15.70;99.90
22698;DHT22;11516;51.612;7.510;2023-07-31T03:59:36;15.70;99.90
22698;DHT22;11516;51.612;7.510;2023-07-31T04:02:04;15.70;99.90
22698;DHT22;11516;51.612;7.510;2023-07-31T04:04:29;15.80;99.90
22698;DHT22;11516;51.612;7.510;2023-07-31T04:06:55;15.80;99.90
22698;DHT22;11516;51.612;7.510;2023-07-31T04:09:21;15.80;99.90
22698;DHT22;11516;51.612;7.510;2023-07-31T04:11:46;15.80;99.90
22698;DHT22;11516;51.612;7.510;2023-07-31T04:14:12;15.80;99.90
22698;DHT22;11516;51.612;7.510;2023-07-31T04:16:37;15.80;99.90
22698;DHT22;11516;51.612;7.510;2023-07-31T04:19:03;15.90;99.90
22698;DHT22;11516;51.612;7.510;2023-07-31T04:21:29;15.90;99.90
22698;DHT22;11516;51.612;7.510;2023-07-31T04:23:55;15.90;99.90
22698;DHT22;11516;51.612;7.510;2023-07-31T04:26:21;15.80;99.90
22698;DHT22;11516;51.612;7.510;2023-07-31T04:28:47;15.90;99.90
22698;DHT22;11516;51.612;7.510;2023-07-31T04:31:12;15.90;99.90
22698;DHT22;11516;51.612;7.510;2023-07-31T04:33:38;16.00;99.90
22698;DHT22;11516;51.612;7.510;2023-07-31T04:36:04;16.00;99.90
22698;DHT22;11516;51.612;7.510;2023-07-31T04:38:30;16.00;99.90
22698;DHT22;11516;51.612;7.510;2023-07-31T04:40:55;16.00;99.90
22698;DHT22;11516;51.612;7.510;2023-07-31T04:43:21;15.90;99.90
22698;DHT22;11516;51.612;7.510;2023-07-31T04:45:46;16.00;99.90
22698;DHT22;11516;51.612;7.510;2023-07-31T04:48:13;16.00;99.90
22698;DHT22;11516;51.612;7.510;2023-07-31T04:50:38;16.00;99.90
22698;DHT22;11516;51.612;7.510;2023-07-31T04:53:04;16.00;99.90
22698;DHT22;11516;51.612;7.510;2023-07-31T04:55:30;16.10;99.90
22698;DHT22;11516;51.612;7.510;2023-07-31T04:57:55;16.10;99.90
22698;DHT22;11516;51.612;7.510;2023-07-31T05:00:21;16.00;99.90
22698;DHT22;11516;51.612;7.510;2023-07-31T05:02:46;16.10;99.90
22698;DHT22;11516;51.612;7.510;2023-07-31T05:05:12;16.10;99.90
22698;DHT22;11516;51.612;7.510;2023-07-31T05:07:37;16.10;99.90
22698;DHT22;11516;51.612;7.510;2023-07-31T05:10:03;16.10;99.90
22698;DHT22;11516;51.612;7.510;2023-07-31T05:12:29;16.20;99.90
22698;DHT22;11516;51.612;7.510;2023-07-31T05:14:54;16.10;99.90
22698;DHT22;11516;51.612;7.510;2023-07-31T05:17:20;16.10;99.90
22698;DHT22;11516;51.612;7.510;2023-07-31T05:19:45;16.00;99.90
22698;DHT22;11516;51.612;7.510;2023-07-31T05:22:12;16.00;99.90
22698;DHT22;11516;51.612;7.510;2023-07-31T05:24:37;16.10;99.90
22698;DHT22;11516;51.612;7.510;2023-07-31T05:27:03;16.10;99.90
22698;DHT22;11516;51.612;7.510;2023-07-31T05:29:29;16.10;99.90
22698;DHT22;11516;51.612;7.510;2023-07-31T05:31:54;16.00;99.90
22698;DHT22;11516;51.612;7.510;2023-07-31T05:34:20;16.00;99.90
22698;DHT22;11516;51.612;7.510;2023-07-31T05:36:45;16.20;99.90
22698;DHT22;11516;51.612;7.510;2023-07-31T05:39:11;16.20;99.90
22698;DHT22;11516;51.612;7.510;2023-07-31T05:41:37;16.20;99.90
22698;DHT22;11516;51.612;7.510;2023-07-31T05:44:03;16.20;99.90
22698;DHT22;11516;51.612;7.510;2023-07-31T05:46:28;16.30;99.90
22698;DHT22;11516;51.612;7.510;2023-07-31T05:48:54;16.30;99.90
22698;DHT22;11516;51.612;7.510;2023-07-31T05:51:20;16.30;99.90
22698;DHT22;11516;51.612;7.510;2023-07-31T05:53:45;16.30;99.90
22698;DHT22;11516;51.612;7.510;2023-07-31T05:56:11;16.30;99.90
22698;DHT22;11516;51.612;7.510;2023-07-31T05:58:36;16.20;99.90
22698;DHT22;11516;51.612;7.510;2023-07-31T06:01:02;16.20;99.90
22698;DHT22;11516;51.612;7.510;2023-07-31T06:03:27;16.20;99.90
22698;DHT22;11516;51.612;7.510;2023-07-31T06:05:53;16.20;99.90
22698;DHT22;11516;51.612;7.510;2023-07-31T06:08:18;16.20;99.90
22698;DHT22;11516;51.612;7.510;2023-07-31T06:10:44;16.20;99.90
22698;DHT22;11516;51.612;7.510;2023-07-31T06:13:09;16.30;99.90
22698;DHT22;11516;51.612;7.510;2023-07-31T06:15:35;16.40;99.90
22698;DHT22;11516;51.612;7.510;2023-07-31T06:18:00;16.40;99.90
22698;DHT22;11516;51.612;7.510;2023-07-31T06:20:27;16.40;99.90
22698;DHT22;11516;51.612;7.510;2023-07-31T06:22:53;16.40;99.90
22698;DHT22;11516;51.612;7.510;2023-07-31T06:25:19;16.40;99.90
22698;DHT22;11516;51.612;7.510;2023-07-31T06:27:44;16.40;99.90
22698;DHT22;11516;51.612;7.510;2023-07-31T06:30:10;16.40;99.90
22698;DHT22;11516;51.612;7.510;2023-07-31T06:32:36;16.40;99.90
22698;DHT22;11516;51.612;7.510;2023-07-31T06:35:02;16.40;99.90
22698;DHT22;11516;51.612;7.510;2023-07-31T06:37:27;16.40;99.90
22698;DHT22;11516;51.612;7.510;2023-07-31T06:39:53;16.40;99.90
22698;DHT22;11516;51.612;7.510;2023-07-31T06:42:18;16.40;99.90
22698;DHT22;11516;51.612;7.510;2023-07-31T06:44:44;16.50;99.90
22698;DHT22;11516;51.612;7.510;2023-07-31T06:47:09;16.50;99.90
22698;DHT22;11516;51.612;7.510;2023-07-31T06:49:35;16.50;99.90
22698;DHT22;11516;51.612;7.510;2023-07-31T06:52:00;16.60;99.90
22698;DHT22;11516;51.612;7.510;2023-07-31T06:54:26;16.50;99.90
22698;DHT22;11516;51.612;7.510;2023-07-31T06:56:52;16.40;99.90
22698;DHT22;11516;51.612;7.510;2023-07-31T06:59:17;16.40;99.90
22698;DHT22;11516;51.612;7.510;2023-07-31T07:01:43;16.40;99.90
22698;DHT22;11516;51.612;7.510;2023-07-31T07:04:08;16.40;99.90
22698;DHT22;11516;51.612;7.510;2023-07-31T07:06:34;16.40;99.90
22698;DHT22;11516;51.612;7.510;2023-07-31T07:08:59;16.50;99.90
22698;DHT22;11516;51.612;7.510;2023-07-31T07:11:25;16.50;99.90
22698;DHT22;11516;51.612;7.510;2023-07-31T07:13:51;16.50;99.90
22698;DHT22;11516;51.612;7.510;2023-07-31T07:16:16;16.50;99.90
22698;DHT22;11516;51.612;7.510;2023-07-31T07:18:42;16.50;99.90
22698;DHT22;11516;51.612;7.510;2023-07-31T07:21:07;16.60;99.90
22698;DHT22;11516;51.612;7.510;2023-07-31T07:23:33;16.60;99.90
22698;DHT22;11516;51.612;7.510;2023-07-31T07:25:59;16.70;99.90
22698;DHT22;11516;51.612;7.510;2023-07-31T07:28:25;16.60;99.90
22698;DHT22;11516;51.612;7.510;2023-07-31T07:30:54;16.60;99.90
22698;DHT22;11516;51.612;7.510;2023-07-31T07:33:20;16.60;99.90
22698;DHT22;11516;51.612;7.510;2023-07-31T07:35:45;16.60;99.90
22698;DHT22;11516;51.612;7.510;2023-07-31T07:38:11;16.60;99.90
22698;DHT22;11516;51.612;7.510;2023-07-31T07:40:40;16.60;99.90
22698;DHT22;11516;51.612;7.510;2023-07-31T07:43:05;16.70;99.90
22698;DHT22;11516;51.612;7.510;2023-07-31T07:45:31;16.70;99.90
22698;DHT22;11516;51.612;7.510;2023-07-31T07:47:57;16.70;99.90
22698;DHT22;11516;51.612;7.510;2023-07-31T07:50:23;16.60;99.90
22698;DHT22;11516;51.612;7.510;2023-07-31T07:52:48;16.60;99.90
22698;DHT22;11516;51.612;7.510;2023-07-31T07:55:14;16.60;99.90
22698;DHT22;11516;51.612;7.510;2023-07-31T07:57:39;16.60;99.90
22698;DHT22;11516;51.612;7.510;2023-07-31T08:00:05;16.60;99.90
22698;DHT22;11516;51.612;7.510;2023-07-31T08:02:31;16.60;99.90
22698;DHT22;11516;51.612;7.510;2023-07-31T08:04:57;16.60;99.90
22698;DHT22;11516;51.612;7.510;2023-07-31T08:07:22;16.70;99.90
22698;DHT22;11516;51.612;7.510;2023-07-31T08:09:48;16.70;99.90
22698;DHT22;11516;51.612;7.510;2023-07-31T08:12:13;16.70;99.90
22698;DHT22;11516;51.612;7.510;2023-07-31T08:14:39;16.60;99.90
22698;DHT22;11516;51.612;7.510;2023-07-31T08:17:05;16.60;99.90
22698;DHT22;11516;51.612;7.510;2023-07-31T08:19:30;16.60;99.90
22698;DHT22;11516;51.612;7.510;2023-07-31T08:21:56;16.70;99.90
22698;DHT22;11516;51.612;7.510;2023-07-31T08:24:22;16.70;99.90
22698;DHT22;11516;51.612;7.510;2023-07-31T08:26:47;16.80;99.90
22698;DHT22;11516;51.612;7.510;2023-07-31T08:29:13;16.70;99.90
22698;DHT22;11516;51.612;7.510;2023-07-31T08:31:39;16.80;99.90
22698;DHT22;11516;51.612;7.510;2023-07-31T08:34:04;16.60;99.90
22698;DHT22;11516;51.612;7.510;2023-07-31T08:36:30;16.70;99.90
22698;DHT22;11516;51.612;7.510;2023-07-31T08:38:55;16.80;99.90
22698;DHT22;11516;51.612;7.510;2023-07-31T08:41:21;16.70;99.90
22698;DHT22;11516;51.612;7.510;2023-07-31T08:43:47;16.70;99.90
22698;DHT22;11516;51.612;7.510;2023-07-31T08:46:13;16.80;99.90
22698;DHT22;11516;51.612;7.510;2023-07-31T08:48:41;16.80;99.90
22698;DHT22;11516;51.612;7.510;2023-07-31T08:51:07;16.70;99.90
22698;DHT22;11516;51.612;7.510;2023-07-31T08:53:33;16.70;99.90
22698;DHT22;11516;51.612;7.510;2023-07-31T08:55:59;16.80;99.90
22698;DHT22;11516;51.612;7.510;2023-07-31T08:58:25;16.70;99.90
22698;DHT22;11516;51.612;7.510;2023-07-31T09:00:53;16.60;99.90
22698;DHT22;11516;51.612;7.510;2023-07-31T09:03:21;16.60;99.90
22698;DHT22;11516;51.612;7.510;2023-07-31T09:05:48;16.60;99.90
22698;DHT22;11516;51.612;7.510;2023-07-31T09:08:18;16.50;99.90
22698;DHT22;11516;51.612;7.510;2023-07-31T09:10:45;16.60;99.90
22698;DHT22;11516;51.612;7.510;2023-07-31T09:13:12;16.60;99.90
22698;DHT22;11516;51.612;7.510;2023-07-31T09:15:39;16.60;99.90
22698;DHT22;11516;51.612;7.510;2023-07-31T09:18:06;16.70;99.90
22698;DHT22;11516;51.612;7.510;2023-07-31T09:20:32;16.60;99.90
22698;DHT22;11516;51.612;7.510;2023-07-31T09:23:10;16.60;99.90
22698;DHT22;11516;51.612;7.510;2023-07-31T09:25:36;16.50;99.90
22698;DHT22;11516;51.612;7.510;2023-07-31T09:28:06;16.50;99.90
22698;DHT22;11516;51.612;7.510;2023-07-31T09:33:09;16.60;99.90
22698;DHT22;11516;51.612;7.510;2023-07-31T09:35:35;16.70;99.90
22698;DHT22;11516;51.612;7.510;2023-07-31T09:38:05;16.70;99.90
22698;DHT22;11516;51.612;7.510;2023-07-31T09:40:36;16.70;99.90
22698;DHT22;11516;51.612;7.510;2023-07-31T09:43:06;16.60;99.90
22698;DHT22;11516;51.612;7.510;2023-07-31T09:45:40;16.60;99.90
22698;DHT22;11516;51.612;7.510;2023-07-31T09:48:11;16.70;99.90
22698;DHT22;11516;51.612;7.510;2023-07-31T09:50:38;16.70;99.90
22698;DHT22;11516;51.612;7.510;2023-07-31T09:53:05;16.70;99.90
22698;DHT22;11516;51.612;7.510;2023-07-31T09:55:31;16.70;99.90
22698;DHT22;11516;51.612;7.510;2023-07-31T09:58:06;16.70;99.90
22698;DHT22;11516;51.612;7.510;2023-07-31T10:00:32;16.70;99.90
22698;DHT22;11516;51.612;7.510;2023-07-31T10:03:01;16.60;99.90
22698;DHT22;11516;51.612;7.510;2023-07-31T10:05:40;16.70;99.90
22698;DHT22;11516;51.612;7.510;2023-07-31T10:08:09;16.70;99.90
22698;DHT22;11516;51.612;7.510;2023-07-31T10:10:36;16.80;99.90
22698;DHT22;11516;51.612;7.510;2023-07-31T10:13:04;16.80;99.90
22698;DHT22;11516;51.612;7.510;2023-07-31T10:15:30;16.80;99.90
22698;DHT22;11516;51.612;7.510;2023-07-31T10:17:58;16.70;99.90
22698;DHT22;11516;51.612;7.510;2023-07-31T10:20:24;16.70;99.90
22698;DHT22;11516;51.612;7.510;2023-07-31T10:22:51;16.80;99.90
22698;DHT22;11516;51.612;7.510;2023-07-31T10:25:19;16.80;99.90
22698;DHT22;11516;51.612;7.510;2023-07-31T10:27:47;16.80;99.90
22698;DHT22;11516;51.612;7.510;2023-07-31T10:30:16;17.00;99.90
22698;DHT22;11516;51.612;7.510;2023-07-31T10:32:44;16.80;99.90
22698;DHT22;11516;51.612;7.510;2023-07-31T10:35:11;16.80;99.90
22698;DHT22;11516;51.612;7.510;2023-07-31T10:37:40;16.90;99.90
22698;DHT22;11516;51.612;7.510;2023-07-31T10:40:11;16.80;99.90
22698;DHT22;11516;51.612;7.510;2023-07-31T10:42:47;17.00;99.90
22698;DHT22;11516;51.612;7.510;2023-07-31T10:45:14;17.00;99.90
22698;DHT22;11516;51.612;7.510;2023-07-31T10:47:48;17.00;99.90
22698;DHT22;11516;51.612;7.510;2023-07-31T10:50:22;17.00;99.90
22698;DHT22;11516;51.612;7.510;2023-07-31T10:52:50;17.20;99.90
22698;DHT22;11516;51.612;7.510;2023-07-31T10:55:39;17.00;99.90
22698;DHT22;11516;51.612;7.510;2023-07-31T10:58:16;17.20;99.90
22698;DHT22;11516;51.612;7.510;2023-07-31T11:00:44;17.10;99.90
22698;DHT22;11516;51.612;7.510;2023-07-31T11:03:19;17.00;99.90
22698;DHT22;11516;51.612;7.510;2023-07-31T11:05:59;17.10;99.90
22698;DHT22;11516;51.612;7.510;2023-07-31T11:08:26;17.00;99.90
22698;DHT22;11516;51.612;7.510;2023-07-31T11:13:33;16.90;99.90
22698;DHT22;11516;51.612;7.510;2023-07-31T11:16:00;17.00;99.90
22698;DHT22;11516;51.612;7.510;2023-07-31T11:18:28;17.00;99.90
22698;DHT22;11516;51.612;7.510;2023-07-31T11:20:54;17.00;99.90
22698;DHT22;11516;51.612;7.510;2023-07-31T11:23:21;16.90;99.90
22698;DHT22;11516;51.612;7.510;2023-07-31T11:25:46;16.90;99.90
22698;DHT22;11516;51.612;7.510;2023-07-31T11:28:14;16.90;99.90
22698;DHT22;11516;51.612;7.510;2023-07-31T11:30:41;16.90;99.90
22698;DHT22;11516;51.612;7.510;2023-07-31T11:33:08;16.90;99.90
22698;DHT22;11516;51.612;7.510;2023-07-31T11:35:45;16.90;99.90
22698;DHT22;11516;51.612;7.510;2023-07-31T11:38:12;17.00;99.90
22698;DHT22;11516;51.612;7.510;2023-07-31T11:40:46;17.00;99.90
22698;DHT22;11516;51.612;7.510;2023-07-31T11:43:11;17.10;99.90
22698;DHT22;11516;51.612;7.510;2023-07-31T11:45:41;17.10;99.90
22698;DHT22;11516;51.612;7.510;2023-07-31T11:48:07;17.10;99.90
22698;DHT22;11516;51.612;7.510;2023-07-31T11:50:34;17.10;99.90
22698;DHT22;11516;51.612;7.510;2023-07-31T11:53:04;17.30;99.90
22698;DHT22;11516;51.612;7.510;2023-07-31T11:55:32;17.20;99.90
22698;DHT22;11516;51.612;7.510;2023-07-31T11:57:59;17.20;99.90
22698;DHT22;11516;51.612;7.510;2023-07-31T12:00:25;17.30;99.90
22698;DHT22;11516;51.612;7.510;2023-07-31T12:02:51;17.40;99.90
22698;DHT22;11516;51.612;7.510;2023-07-31T12:05:18;17.50;99.90
22698;DHT22;11516;51.612;7.510;2023-07-31T12:10:21;17.50;99.90
22698;DHT22;11516;51.612;7.510;2023-07-31T12:13:07;17.60;99.90
22698;DHT22;11516;51.612;7.510;2023-07-31T12:15:37;17.60;99.90
22698;DHT22;11516;51.612;7.510;2023-07-31T12:18:11;17.60;99.90
22698;DHT22;11516;51.612;7.510;2023-07-31T12:20:44;17.70;99.90
22698;DHT22;11516;51.612;7.510;2023-07-31T12:23:18;17.80;99.90
22698;DHT22;11516;51.612;7.510;2023-07-31T12:25:44;18.00;99.90
22698;DHT22;11516;51.612;7.510;2023-07-31T12:28:10;18.00;99.90
22698;DHT22;11516;51.612;7.510;2023-07-31T12:30:40;18.00;99.90
22698;DHT22;11516;51.612;7.510;2023-07-31T12:33:15;18.20;99.90
22698;DHT22;11516;51.612;7.510;2023-07-31T12:35:45;18.30;99.90
22698;DHT22;11516;51.612;7.510;2023-07-31T12:38:12;18.20;99.90
22698;DHT22;11516;51.612;7.510;2023-07-31T12:40:39;18.30;99.90
22698;DHT22;11516;51.612;7.510;2023-07-31T12:43:06;18.10;99.90
22698;DHT22;11516;51.612;7.510;2023-07-31T12:45:32;17.90;99.90
22698;DHT22;11516;51.612;7.510;2023-07-31T12:47:59;17.90;99.90
22698;DHT22;11516;51.612;7.510;2023-07-31T12:50:25;17.80;99.90
22698;DHT22;11516;51.612;7.510;2023-07-31T12:52:51;17.70;99.90
22698;DHT22;11516;51.612;7.510;2023-07-31T12:55:16;17.70;99.90
22698;DHT22;11516;51.612;7.510;2023-07-31T12:57:43;17.60;99.90
22698;DHT22;11516;51.612;7.510;2023-07-31T13:00:09;17.60;99.90
22698;DHT22;11516;51.612;7.510;2023-07-31T13:02:35;17.60;99.90
22698;DHT22;11516;51.612;7.510;2023-07-31T13:05:00;17.60;99.90
22698;DHT22;11516;51.612;7.510;2023-07-31T13:07:26;17.60;99.90
22698;DHT22;11516;51.612;7.510;2023-07-31T13:09:52;17.60;99.90
22698;DHT22;11516;51.612;7.510;2023-07-31T13:12:17;17.50;99.90
22698;DHT22;11516;51.612;7.510;2023-07-31T13:14:43;17.60;99.90
22698;DHT22;11516;51.612;7.510;2023-07-31T13:17:08;17.60;99.90
22698;DHT22;11516;51.612;7.510;2023-07-31T13:19:34;17.60;99.90
22698;DHT22;11516;51.612;7.510;2023-07-31T13:21:59;17.70;99.90
22698;DHT22;11516;51.612;7.510;2023-07-31T13:24:25;17.80;99.90
22698;DHT22;11516;51.612;7.510;2023-07-31T13:26:50;17.90;99.90
22698;DHT22;11516;51.612;7.510;2023-07-31T13:29:16;18.00;99.90
22698;DHT22;11516;51.612;7.510;2023-07-31T13:31:42;18.00;99.90
22698;DHT22;11516;51.612;7.510;2023-07-31T13:34:07;18.10;99.90
22698;DHT22;11516;51.612;7.510;2023-07-31T13:36:33;18.10;99.90
22698;DHT22;11516;51.612;7.510;2023-07-31T13:38:59;18.00;99.90
22698;DHT22;11516;51.612;7.510;2023-07-31T13:41:26;17.90;99.90
22698;DHT22;11516;51.612;7.510;2023-07-31T13:43:51;18.10;99.90
22698;DHT22;11516;51.612;7.510;2023-07-31T13:46:17;18.00;99.90
22698;DHT22;11516;51.612;7.510;2023-07-31T13:48:42;18.00;99.90
22698;DHT22;11516;51.612;7.510;2023-07-31T13:51:08;18.00;99.90
22698;DHT22;11516;51.612;7.510;2023-07-31T13:53:33;17.80;99.90
22698;DHT22;11516;51.612;7.510;2023-07-31T13:55:59;17.90;99.90
22698;DHT22;11516;51.612;7.510;2023-07-31T13:58:25;17.90;99.90
22698;DHT22;11516;51.612;7.510;2023-07-31T14:00:50;17.90;99.90
22698;DHT22;11516;51.612;7.510;2023-07-31T14:03:16;17.90;99.90
22698;DHT22;11516;51.612;7.510;2023-07-31T14:05:41;18.00;99.90
22698;DHT22;11516;51.612;7.510;2023-07-31T14:08:07;18.00;99.90
22698;DHT22;11516;51.612;7.510;2023-07-31T14:10:32;18.00;99.90
22698;DHT22;11516;51.612;7.510;2023-07-31T14:12:58;18.00;99.90
22698;DHT22;11516;51.612;7.510;2023-07-31T14:15:23;17.90;99.90
22698;DHT22;11516;51.612;7.510;2023-07-31T14:17:49;18.00;99.90
22698;DHT22;11516;51.612;7.510;2023-07-31T14:20:14;18.00;99.90
22698;DHT22;11516;51.612;7.510;2023-07-31T14:22:40;18.20;99.90
22698;DHT22;11516;51.612;7.510;2023-07-31T14:25:06;18.20;99.90
22698;DHT22;11516;51.612;7.510;2023-07-31T14:27:31;18.20;99.90
22698;DHT22;11516;51.612;7.510;2023-07-31T14:29:57;18.50;99.90
22698;DHT22;11516;51.612;7.510;2023-07-31T14:32:23;18.50;99.90
22698;DHT22;11516;51.612;7.510;2023-07-31T14:34:50;18.60;99.90
22698;DHT22;11516;51.612;7.510;2023-07-31T14:37:16;18.60;99.90
22698;DHT22;11516;51.612;7.510;2023-07-31T14:39:41;18.50;99.90
22698;DHT22;11516;51.612;7.510;2023-07-31T14:42:07;18.50;99.90
22698;DHT22;11516;51.612;7.510;2023-07-31T14:44:32;18.40;99.90
22698;DHT22;11516;51.612;7.510;2023-07-31T14:46:58;18.40;99.90
22698;DHT22;11516;51.612;7.510;2023-07-31T14:49:23;18.40;99.90
22698;DHT22;11516;51.612;7.510;2023-07-31T14:51:49;18.30;99.90
22698;DHT22;11516;51.612;7.510;2023-07-31T14:54:14;18.30;99.90
22698;DHT22;11516;51.612;7.510;2023-07-31T14:56:40;18.40;99.90
22698;DHT22;11516;51.612;7.510;2023-07-31T14:59:05;18.40;99.90
22698;DHT22;11516;51.612;7.510;2023-07-31T15:01:33;18.40;99.90
22698;DHT22;11516;51.612;7.510;2023-07-31T15:03:58;18.40;99.90
22698;DHT22;11516;51.612;7.510;2023-07-31T15:06:24;18.40;99.90
22698;DHT22;11516;51.612;7.510;2023-07-31T15:08:49;18.20;99.90
22698;DHT22;11516;51.612;7.510;2023-07-31T15:11:15;18.20;99.90
22698;DHT22;11516;51.612;7.510;2023-07-31T15:13:41;18.20;99.90
22698;DHT22;11516;51.612;7.510;2023-07-31T15:16:07;18.20;99.90
22698;DHT22;11516;51.612;7.510;2023-07-31T15:18:32;18.20;99.90
22698;DHT22;11516;51.612;7.510;2023-07-31T15:20:58;18.20;99.90
22698;DHT22;11516;51.612;7.510;2023-07-31T15:23:23;18.10;99.90
22698;DHT22;11516;51.612;7.510;2023-07-31T15:25:49;18.20;99.90
22698;DHT22;11516;51.612;7.510;2023-07-31T15:28:14;18.10;99.90
22698;DHT22;11516;51.612;7.510;2023-07-31T15:30:41;18.10;99.90
22698;DHT22;11516;51.612;7.510;2023-07-31T15:33:06;18.00;99.90
22698;DHT22;11516;51.612;7.510;2023-07-31T15:35:32;18.10;99.90
22698;DHT22;11516;51.612;7.510;2023-07-31T15:37:57;18.20;99.90